Time;durP1;ratioP1;P1;durP2;ratioP2;P2;SDS_P1;SDS_P2;PMS_P1;PMS_P2;Temp;Humidity;BMP_temperature;BMP_pressure;BME280_temperature;BME280_humidity;BME280_pressure;Samples;Min_cycle;Max_cycle;Signal;HPM_P1;HPM_P2
2023/08/28 00:00:59;;;;;;;3.25;1.15;;;17.70;74.50;;;;;;5088991;28;20036;-92
2023/08/28 00:03:25;;;;;;;5.80;1.50;;;17.70;74.70;;;;;;5087124;28;20084;-92
2023/08/28 00:05:51;;;;;;;1.45;1.02;;;17.70;74.60;;;;;;5088263;28;20063;-91
2023/08/28 00:08:17;;;;;;;1.55;0.93;;;17.70;74.60;;;;;;5085357;28;20020;-93
2023/08/28 00:10:43;;;;;;;1.73;1.30;;;17.80;74.60;;;;;;5082885;28;20049;-91
2023/08/28 00:13:09;;;;;;;3.28;1.30;;;17.60;74.60;;;;;;5087786;28;20039;-92
2023/08/28 00:15:35;;;;;;;2.97;1.23;;;17.60;74.60;;;;;;5092255;28;20031;-91
2023/08/28 00:18:01;;;;;;;6.20;1.17;;;17.80;74.60;;;;;;5083648;28;20474;-92
2023/08/28 00:20:27;;;;;;;3.60;1.33;;;17.60;74.50;;;;;;5089015;28;20035;-92
2023/08/28 00:22:53;;;;;;;3.03;1.25;;;17.50;74.70;;;;;;5086200;28;20039;-92
2023/08/28 00:25:18;;;;;;;3.50;1.35;;;17.40;74.60;;;;;;5083315;28;20024;-92
2023/08/28 00:27:44;;;;;;;1.92;1.30;;;17.50;74.70;;;;;;5086749;28;20462;-92
2023/08/28 00:30:11;;;;;;;3.03;1.33;;;17.50;74.70;;;;;;5090876;28;20046;-96
2023/08/28 00:32:38;;;;;;;4.75;1.17;;;17.50;74.80;;;;;;5083749;28;20036;-93
2023/08/28 00:35:05;;;;;;;2.67;1.05;;;17.30;74.50;;;;;;5088784;28;20046;-92
2023/08/28 00:37:32;;;;;;;1.83;1.10;;;17.40;74.90;;;;;;5091809;28;20122;-91
2023/08/28 00:39:57;;;;;;;2.67;1.20;;;17.40;75.00;;;;;;5079490;28;20031;-92
2023/08/28 00:42:24;;;;;;;4.03;1.30;;;17.40;74.90;;;;;;5085751;28;20023;-92
2023/08/28 00:44:50;;;;;;;5.97;1.23;;;17.40;75.30;;;;;;5076679;28;20032;-91
2023/08/28 00:47:16;;;;;;;5.40;1.08;;;17.30;75.10;;;;;;5083222;28;20107;-91
2023/08/28 00:49:43;;;;;;;0.82;0.82;;;17.40;75.40;;;;;;5089138;28;20035;-92
2023/08/28 00:52:10;;;;;;;1.52;1.00;;;17.40;75.20;;;;;;5087706;28;20490;-92
2023/08/28 00:54:41;;;;;;;1.17;0.95;;;17.40;75.50;;;;;;5080831;28;20035;-92
2023/08/28 00:57:09;;;;;;;2.08;1.17;;;17.30;75.80;;;;;;5084982;28;20023;-92
2023/08/28 00:59:35;;;;;;;4.43;1.00;;;17.40;75.60;;;;;;5083858;28;20092;-92
2023/08/28 01:02:03;;;;;;;1.67;0.90;;;17.40;75.40;;;;;;5089406;28;20057;-92
2023/08/28 01:04:30;;;;;;;4.15;1.25;;;17.50;75.60;;;;;;5078244;28;20478;-92
2023/08/28 01:07:21;;;;;;;1.25;1.15;;;17.50;75.80;;;;;;5084768;28;20027;-92
2023/08/28 01:10:00;;;;;;;6.30;1.50;;;17.60;76.50;;;;;;5089162;28;20028;-94
2023/08/28 01:12:49;;;;;;;2.55;1.20;;;17.50;76.10;;;;;;5078955;28;20024;-92
2023/08/28 01:15:23;;;;;;;2.58;1.27;;;17.50;76.00;;;;;;4984009;28;20141;-95
2023/08/28 01:17:54;;;;;;;6.70;1.33;;;17.50;75.60;;;;;;4984234;28;20042;-92
2023/08/28 01:20:21;;;;;;;2.22;1.33;;;17.50;75.30;;;;;;4985555;28;20053;-92
2023/08/28 01:23:18;;;;;;;2.72;1.17;;;17.50;75.20;;;;;;4989878;28;20026;-93
2023/08/28 01:25:45;;;;;;;3.97;1.38;;;17.40;75.60;;;;;;4980443;28;20053;-91
2023/08/28 01:28:11;;;;;;;1.40;1.30;;;17.30;75.10;;;;;;4984312;28;20034;-92
2023/08/28 01:30:37;;;;;;;1.33;1.10;;;17.40;75.10;;;;;;4983841;28;20092;-92
2023/08/28 01:33:03;;;;;;;9.30;1.30;;;17.40;75.10;;;;;;4989416;28;20046;-91
2023/08/28 01:35:31;;;;;;;1.30;1.20;;;17.30;75.30;;;;;;4987156;28;20030;-93
2023/08/28 01:38:19;;;;;;;3.30;1.25;;;17.20;75.40;;;;;;4990194;28;20037;-92
2023/08/28 01:41:09;;;;;;;2.63;1.13;;;17.20;75.60;;;;;;4991709;28;20456;-92
2023/08/28 01:43:43;;;;;;;1.67;1.10;;;17.30;75.80;;;;;;4984409;28;20026;-91
2023/08/28 01:46:10;;;;;;;1.10;1.00;;;17.30;75.60;;;;;;4990342;28;20125;-91
2023/08/28 01:48:51;;;;;;;4.30;1.20;;;17.20;75.50;;;;;;4991238;28;20034;-91
2023/08/28 01:51:16;;;;;;;1.65;1.20;;;17.30;76.00;;;;;;4996087;28;20252;-92
2023/08/28 01:53:42;;;;;;;2.33;1.15;;;17.30;75.30;;;;;;5083003;28;20190;-91
2023/08/28 01:56:08;;;;;;;3.65;1.20;;;17.30;75.40;;;;;;5094471;28;20066;-92
2023/08/28 01:58:37;;;;;;;4.47;1.00;;;17.30;75.70;;;;;;5088215;28;20352;-92
2023/08/28 02:01:04;;;;;;;2.30;1.30;;;17.30;75.80;;;;;;5091437;28;20028;-92
2023/08/28 02:03:31;;;;;;;1.65;0.90;;;17.40;75.40;;;;;;5093225;28;20110;-91
2023/08/28 02:05:57;;;;;;;3.03;0.95;;;17.30;75.40;;;;;;5084237;28;20028;-92
2023/08/28 02:08:23;;;;;;;1.85;1.10;;;17.30;75.60;;;;;;5093449;28;20052;-92
2023/08/28 02:10:49;;;;;;;1.10;0.90;;;17.30;75.50;;;;;;5086332;28;20565;-93
2023/08/28 02:13:15;;;;;;;1.00;1.00;;;17.30;75.60;;;;;;5093472;28;20031;-91
2023/08/28 02:15:41;;;;;;;1.52;1.05;;;17.30;75.60;;;;;;5094827;28;20035;-91
2023/08/28 02:18:07;;;;;;;1.80;0.93;;;17.30;75.50;;;;;;5091020;28;20114;-92
2023/08/28 02:20:33;;;;;;;2.55;1.10;;;17.30;75.60;;;;;;5092176;28;20020;-92
2023/08/28 02:22:59;;;;;;;2.80;1.25;;;17.30;75.60;;;;;;5096612;28;20027;-91
2023/08/28 02:25:25;;;;;;;1.98;1.20;;;17.30;75.50;;;;;;5092599;28;20077;-92
2023/08/28 02:27:51;;;;;;;2.95;1.20;;;17.20;75.10;;;;;;5096023;28;20023;-92
2023/08/28 02:30:17;;;;;;;2.88;1.20;;;17.30;75.30;;;;;;5093391;28;20489;-91
2023/08/28 02:32:46;;;;;;;1.88;1.10;;;17.30;75.60;;;;;;5085594;28;20061;-91
2023/08/28 02:35:12;;;;;;;1.40;1.30;;;17.50;76.00;;;;;;5099770;28;20115;-94
2023/08/28 02:37:39;;;;;;;4.10;1.20;;;17.30;75.50;;;;;;5082005;28;20610;-93
2023/08/28 02:40:08;;;;;;;2.40;1.20;;;17.30;75.70;;;;;;5098370;28;20114;-92
2023/08/28 02:42:35;;;;;;;1.83;1.10;;;17.20;75.80;;;;;;5111306;28;20463;-92
2023/08/28 02:45:01;;;;;;;4.90;1.30;;;17.20;75.60;;;;;;5089289;28;20028;-93
2023/08/28 02:47:27;;;;;;;1.55;0.80;;;17.30;75.20;;;;;;5082461;28;20038;-91
2023/08/28 02:49:53;;;;;;;4.35;1.25;;;17.30;75.00;;;;;;5094571;28;20065;-92
2023/08/28 02:52:19;;;;;;;1.63;1.20;;;17.20;74.90;;;;;;5094566;28;20055;-92
2023/08/28 02:54:45;;;;;;;3.15;1.15;;;17.30;75.10;;;;;;5087725;28;20381;-92
2023/08/28 02:57:11;;;;;;;1.73;1.05;;;17.30;75.10;;;;;;5089061;28;20114;-96
2023/08/28 02:59:37;;;;;;;1.17;0.85;;;17.30;75.00;;;;;;5091933;28;20035;-92
2023/08/28 03:02:03;;;;;;;1.45;1.05;;;17.30;75.20;;;;;;5088596;28;20034;-92
2023/08/28 03:04:29;;;;;;;1.27;0.98;;;17.30;75.40;;;;;;5086707;28;20477;-93
2023/08/28 03:06:54;;;;;;;2.33;1.10;;;17.30;75.20;;;;;;5088847;28;20114;-91
2023/08/28 03:09:20;;;;;;;1.42;1.02;;;17.20;75.00;;;;;;5086767;28;20408;-92
2023/08/28 03:11:46;;;;;;;0.85;0.80;;;17.30;75.00;;;;;;5094135;28;20111;-93
2023/08/28 03:14:12;;;;;;;4.10;1.00;;;17.30;75.00;;;;;;5089604;28;20039;-93
2023/08/28 03:16:38;;;;;;;4.80;1.02;;;17.30;75.10;;;;;;5089421;28;20391;-92
2023/08/28 03:19:04;;;;;;;2.60;1.17;;;17.20;75.00;;;;;;5087380;28;20039;-93
2023/08/28 03:21:30;;;;;;;2.15;1.27;;;17.20;75.00;;;;;;5087506;28;20034;-91
2023/08/28 03:23:56;;;;;;;6.97;1.10;;;17.30;75.10;;;;;;5092678;28;20028;-92
2023/08/28 03:26:25;;;;;;;1.42;1.00;;;17.40;74.90;;;;;;5084237;28;20075;-93
2023/08/28 03:28:51;;;;;;;1.83;1.02;;;17.40;75.00;;;;;;5093956;28;20028;-92
2023/08/28 03:31:17;;;;;;;4.38;1.13;;;17.30;75.00;;;;;;5089340;28;20024;-92
2023/08/28 03:33:43;;;;;;;5.90;1.20;;;17.30;74.90;;;;;;5085632;28;20034;-93
2023/08/28 03:36:09;;;;;;;2.20;0.98;;;17.30;74.80;;;;;;5092282;28;20024;-92
2023/08/28 03:38:35;;;;;;;1.48;1.05;;;17.30;74.70;;;;;;5088926;28;20043;-93
2023/08/28 03:41:00;;;;;;;3.15;1.15;;;17.20;74.70;;;;;;5091627;28;20039;-91
2023/08/28 03:43:26;;;;;;;2.70;1.15;;;17.30;74.80;;;;;;5083480;28;20408;-91
2023/08/28 03:45:52;;;;;;;4.20;1.35;;;17.20;75.10;;;;;;5088197;28;20061;-92
2023/08/28 03:48:18;;;;;;;2.15;1.10;;;17.30;75.00;;;;;;5085392;28;20023;-91
2023/08/28 03:50:45;;;;;;;1.88;1.13;;;17.30;75.00;;;;;;5088168;28;20036;-91
2023/08/28 03:53:11;;;;;;;1.80;1.05;;;17.30;75.20;;;;;;5088275;28;20045;-90
2023/08/28 03:55:37;;;;;;;3.25;1.25;;;17.20;74.90;;;;;;5097639;28;20109;-90
2023/08/28 03:58:04;;;;;;;4.20;1.40;;;17.20;75.00;;;;;;5109504;28;20069;-91
2023/08/28 04:00:32;;;;;;;4.05;1.30;;;17.20;75.10;;;;;;5107614;28;20050;-96
2023/08/28 04:02:58;;;;;;;2.58;1.70;;;17.20;75.30;;;;;;5108210;28;20018;-96
2023/08/28 04:05:28;;;;;;;2.20;1.60;;;17.30;75.40;;;;;;5111045;28;20042;-93
2023/08/28 04:07:54;;;;;;;3.08;1.30;;;17.10;75.50;;;;;;5098867;28;20031;-91
2023/08/28 04:10:20;;;;;;;3.25;1.45;;;17.20;75.40;;;;;;5081724;28;20107;-91
2023/08/28 04:12:46;;;;;;;4.80;1.35;;;17.20;75.60;;;;;;5092473;28;20031;-91
2023/08/28 04:15:12;;;;;;;2.75;1.30;;;17.20;75.50;;;;;;5086847;28;20028;-92
2023/08/28 04:17:38;;;;;;;1.98;1.30;;;17.20;75.30;;;;;;5090838;28;20043;-91
2023/08/28 04:20:15;;;;;;;1.77;1.20;;;17.20;75.30;;;;;;5092248;28;20027;-91
2023/08/28 04:22:44;;;;;;;2.47;1.45;;;17.20;75.50;;;;;;5085974;28;20067;-93
2023/08/28 04:25:12;;;;;;;5.05;1.20;;;17.20;75.40;;;;;;5088281;28;20378;-91
2023/08/28 04:27:38;;;;;;;4.00;1.40;;;17.20;75.30;;;;;;5084968;28;20027;-90
2023/08/28 04:30:06;;;;;;;3.38;1.30;;;17.20;75.50;;;;;;5087455;28;20054;-92
2023/08/28 04:32:32;;;;;;;1.88;1.15;;;17.00;75.40;;;;;;5082747;28;20459;-92
2023/08/28 04:34:58;;;;;;;1.95;1.40;;;17.00;75.20;;;;;;5081267;28;20051;-90
2023/08/28 04:37:24;;;;;;;4.65;1.38;;;17.20;75.60;;;;;;5080826;28;20028;-92
2023/08/28 04:39:50;;;;;;;3.00;1.42;;;17.20;75.90;;;;;;5087356;28;20458;-92
2023/08/28 04:42:16;;;;;;;8.82;1.50;;;17.10;75.60;;;;;;5084286;28;20035;-92
2023/08/28 04:44:43;;;;;;;1.70;1.30;;;17.20;75.80;;;;;;5078949;28;20066;-92
2023/08/28 04:47:09;;;;;;;1.65;1.05;;;17.20;75.80;;;;;;5081431;28;20033;-91
2023/08/28 04:49:35;;;;;;;2.17;1.30;;;17.40;75.90;;;;;;5081627;28;20024;-92
2023/08/28 04:52:02;;;;;;;2.42;1.35;;;17.30;75.90;;;;;;5079964;28;20032;-94
2023/08/28 04:54:28;;;;;;;1.80;1.35;;;17.20;76.40;;;;;;5102100;28;20043;-92
2023/08/28 04:56:57;;;;;;;6.35;1.30;;;17.20;76.10;;;;;;5084589;28;20404;-92
2023/08/28 04:59:23;;;;;;;3.13;1.40;;;17.20;76.30;;;;;;5089801;28;20372;-91
2023/08/28 05:01:49;;;;;;;4.25;1.40;;;17.30;75.90;;;;;;5080727;28;20027;-92
2023/08/28 05:04:14;;;;;;;1.40;1.30;;;17.30;76.10;;;;;;5085763;28;20115;-92
2023/08/28 05:06:40;;;;;;;1.38;1.10;;;17.30;76.20;;;;;;5087827;28;20031;-92
2023/08/28 05:09:06;;;;;;;3.60;1.30;;;17.30;76.10;;;;;;5085589;28;20032;-92
2023/08/28 05:11:32;;;;;;;2.75;1.30;;;17.30;76.80;;;;;;5087147;28;20080;-92
2023/08/28 05:13:58;;;;;;;1.83;1.30;;;17.40;75.90;;;;;;5086214;28;20024;-92
2023/08/28 05:16:24;;;;;;;1.95;1.50;;;17.30;76.00;;;;;;5088686;28;20028;-93
2023/08/28 05:18:50;;;;;;;1.52;1.25;;;17.40;75.90;;;;;;5088211;28;20051;-92
2023/08/28 05:21:16;;;;;;;2.45;1.42;;;17.40;76.00;;;;;;5085409;28;20032;-92
2023/08/28 05:23:42;;;;;;;2.47;1.17;;;17.40;75.90;;;;;;5078420;28;20033;-92
2023/08/28 05:26:08;;;;;;;2.00;1.38;;;17.30;75.90;;;;;;5081693;28;20076;-92
2023/08/28 05:28:38;;;;;;;4.63;1.52;;;17.30;76.10;;;;;;5083647;28;20032;-92
2023/08/28 05:31:05;;;;;;;4.53;1.60;;;17.40;75.90;;;;;;5080915;28;20052;-92
2023/08/28 05:33:31;;;;;;;2.00;1.77;;;17.40;76.10;;;;;;5090063;28;20062;-92
2023/08/28 05:35:57;;;;;;;8.45;1.55;;;17.40;76.00;;;;;;5091372;28;20032;-92
2023/08/28 05:38:23;;;;;;;3.92;1.20;;;17.40;76.20;;;;;;5087014;28;20471;-93
2023/08/28 05:40:49;;;;;;;3.42;1.50;;;17.40;75.90;;;;;;5091019;28;20069;-92
2023/08/28 05:43:15;;;;;;;5.57;1.60;;;17.40;75.90;;;;;;5094014;28;20077;-93
2023/08/28 05:45:41;;;;;;;3.42;1.60;;;17.30;75.90;;;;;;5107044;28;20109;-92
2023/08/28 05:48:08;;;;;;;2.50;1.48;;;17.50;76.20;;;;;;5093598;28;20539;-92
2023/08/28 05:50:36;;;;;;;1.50;1.10;;;17.40;75.60;;;;;;5088596;28;20074;-92
2023/08/28 05:53:02;;;;;;;1.70;1.38;;;17.40;75.30;;;;;;5091289;28;20032;-92
2023/08/28 05:55:28;;;;;;;2.35;1.30;;;17.40;75.80;;;;;;5091827;28;20063;-93
2023/08/28 05:57:54;;;;;;;3.30;1.50;;;17.30;76.20;;;;;;5093216;28;20036;-92
2023/08/28 06:00:20;;;;;;;2.10;1.27;;;17.40;75.70;;;;;;5089511;28;20020;-91
2023/08/28 06:02:46;;;;;;;2.15;1.42;;;17.40;75.80;;;;;;5087367;28;20157;-93
2023/08/28 06:05:14;;;;;;;2.33;1.45;;;17.50;76.00;;;;;;5091076;28;20032;-92
2023/08/28 06:07:40;;;;;;;2.85;1.98;;;17.50;76.00;;;;;;5082220;28;20085;-92
2023/08/28 06:10:07;;;;;;;3.00;1.70;;;17.50;76.10;;;;;;5088652;28;20468;-93
2023/08/28 06:12:34;;;;;;;4.32;1.67;;;17.40;76.10;;;;;;5091055;28;20028;-91
2023/08/28 06:14:59;;;;;;;4.90;1.95;;;17.60;75.90;;;;;;5089753;28;20040;-92
2023/08/28 06:17:25;;;;;;;4.22;1.80;;;17.50;76.00;;;;;;5093835;28;20024;-91
2023/08/28 06:19:51;;;;;;;2.97;1.80;;;17.80;76.00;;;;;;5085247;28;20549;-92
2023/08/28 06:22:17;;;;;;;4.43;1.60;;;17.60;75.80;;;;;;5087364;28;20035;-91
2023/08/28 06:24:43;;;;;;;2.08;1.70;;;17.70;75.70;;;;;;5092615;28;20044;-92
2023/08/28 06:27:09;;;;;;;4.10;1.70;;;17.70;75.70;;;;;;5084279;28;20033;-92
2023/08/28 06:29:35;;;;;;;5.20;1.55;;;17.70;75.80;;;;;;5093259;28;20051;-91
2023/08/28 06:32:01;;;;;;;3.75;2.03;;;17.70;75.60;;;;;;5091148;28;20100;-92
2023/08/28 06:34:27;;;;;;;2.33;1.95;;;17.60;75.40;;;;;;5095155;28;20386;-91
2023/08/28 06:36:53;;;;;;;4.47;2.60;;;17.70;75.40;;;;;;5089194;28;20029;-91
2023/08/28 06:39:19;;;;;;;5.03;2.30;;;17.70;75.40;;;;;;5088112;27;20039;-93
2023/08/28 06:41:46;;;;;;;6.25;2.20;;;17.90;75.20;;;;;;5090035;28;20027;-92
2023/08/28 06:44:12;;;;;;;2.72;2.13;;;17.60;75.10;;;;;;5089221;28;20035;-92
2023/08/28 06:46:38;;;;;;;5.03;2.20;;;17.60;75.10;;;;;;5093788;28;20482;-91
2023/08/28 06:49:04;;;;;;;7.15;2.00;;;17.70;75.10;;;;;;5091026;28;20032;-92
2023/08/28 06:51:30;;;;;;;2.60;1.65;;;17.70;75.20;;;;;;5094638;28;20023;-96
2023/08/28 06:53:57;;;;;;;2.00;1.70;;;17.70;74.90;;;;;;5095490;28;20051;-91
2023/08/28 06:56:23;;;;;;;4.13;1.90;;;17.70;74.90;;;;;;5090393;28;20468;-91
2023/08/28 06:58:49;;;;;;;5.43;2.50;;;17.50;74.70;;;;;;5092208;28;20036;-92
2023/08/28 07:01:15;;;;;;;3.55;1.83;;;17.70;74.90;;;;;;5092703;28;20398;-92
2023/08/28 07:03:41;;;;;;;5.40;1.88;;;17.60;74.80;;;;;;5086132;28;20032;-91
2023/08/28 07:06:07;;;;;;;2.58;1.90;;;17.50;75.00;;;;;;5089702;28;20387;-92
2023/08/28 07:08:32;;;;;;;3.50;2.00;;;17.60;75.00;;;;;;5085430;28;20096;-91
2023/08/28 07:10:58;;;;;;;2.60;2.10;;;17.60;74.80;;;;;;5091326;28;20466;-91
2023/08/28 07:13:24;;;;;;;3.75;2.33;;;17.60;74.90;;;;;;5090315;28;20031;-91
2023/08/28 07:15:50;;;;;;;3.85;2.00;;;17.60;74.70;;;;;;5089422;28;20391;-92
2023/08/28 07:18:16;;;;;;;3.63;2.28;;;17.50;74.70;;;;;;5095786;28;20046;-92
2023/08/28 07:20:43;;;;;;;5.43;2.33;;;17.40;74.90;;;;;;5096921;28;20024;-92
2023/08/28 07:23:10;;;;;;;5.20;2.10;;;17.60;75.50;;;;;;5096100;28;20107;-91
2023/08/28 07:25:36;;;;;;;7.25;1.88;;;17.50;75.60;;;;;;5089278;28;20020;-91
2023/08/28 07:28:02;;;;;;;2.80;2.10;;;17.50;75.60;;;;;;5085730;28;20035;-92
2023/08/28 07:30:28;;;;;;;4.43;2.13;;;17.50;75.80;;;;;;5092144;28;20504;-92
2023/08/28 07:32:54;;;;;;;6.50;2.17;;;17.60;75.60;;;;;;5095898;28;20035;-92
2023/08/28 07:35:20;;;;;;;3.90;2.25;;;17.50;75.60;;;;;;5091190;28;20038;-92
2023/08/28 07:37:46;;;;;;;3.60;2.30;;;17.60;75.70;;;;;;5095219;28;20439;-92
2023/08/28 07:40:12;;;;;;;4.53;2.53;;;17.70;75.70;;;;;;5092796;27;20020;-93
2023/08/28 07:42:38;;;;;;;6.57;2.60;;;17.60;75.80;;;;;;5095568;28;20020;-91
2023/08/28 07:45:04;;;;;;;3.75;2.35;;;17.70;75.80;;;;;;5085261;28;20357;-93
2023/08/28 07:47:30;;;;;;;2.88;1.98;;;17.70;76.00;;;;;;5095149;28;20383;-93
2023/08/28 07:49:56;;;;;;;4.60;2.53;;;17.60;75.70;;;;;;5092429;28;20023;-93
2023/08/28 07:52:22;;;;;;;3.80;2.28;;;17.80;75.90;;;;;;5087718;28;20069;-93
2023/08/28 07:54:48;;;;;;;7.15;2.03;;;17.80;75.90;;;;;;5091481;28;20047;-92
2023/08/28 07:57:14;;;;;;;3.80;2.33;;;17.70;76.10;;;;;;5091782;27;20397;-93
2023/08/28 07:59:40;;;;;;;4.25;1.98;;;17.80;75.90;;;;;;5089777;28;20036;-93
2023/08/28 08:02:07;;;;;;;3.88;2.00;;;17.90;76.20;;;;;;5089828;28;20028;-93
2023/08/28 08:04:33;;;;;;;3.53;1.88;;;17.90;76.20;;;;;;5087554;28;20115;-93
2023/08/28 08:07:00;;;;;;;3.50;2.05;;;17.90;76.00;;;;;;5089451;28;20048;-93
2023/08/28 08:09:25;;;;;;;5.25;2.17;;;17.90;76.00;;;;;;5098588;28;20035;-92
2023/08/28 08:11:51;;;;;;;6.50;2.30;;;18.00;75.80;;;;;;5091906;28;20031;-93
2023/08/28 08:14:17;;;;;;;3.85;2.15;;;18.00;75.60;;;;;;5098854;27;20016;-92
2023/08/28 08:16:43;;;;;;;4.28;2.30;;;18.00;75.70;;;;;;5105116;28;20008;-95
2023/08/28 08:19:09;;;;;;;2.35;1.90;;;18.00;75.60;;;;;;5109428;28;20197;-95
2023/08/28 08:21:36;;;;;;;3.72;2.15;;;18.00;75.50;;;;;;5114163;28;20032;-95
2023/08/28 08:24:02;;;;;;;3.50;2.05;;;18.00;75.50;;;;;;5113240;27;20038;-92
2023/08/28 08:26:28;;;;;;;5.40;2.22;;;18.20;76.00;;;;;;5101774;28;20027;-92
2023/08/28 08:28:55;;;;;;;4.88;2.22;;;18.10;75.50;;;;;;5091019;28;20035;-93
2023/08/28 08:31:20;;;;;;;4.47;2.03;;;18.10;75.50;;;;;;5086447;28;20044;-94
2023/08/28 08:33:46;;;;;;;3.92;2.30;;;18.10;75.30;;;;;;5095051;28;20031;-93
2023/08/28 08:36:15;;;;;;;3.15;2.13;;;18.10;75.20;;;;;;5089925;28;20095;-92
2023/08/28 08:38:41;;;;;;;4.22;2.28;;;18.10;75.70;;;;;;5093166;28;20035;-94
2023/08/28 08:41:08;;;;;;;2.97;2.10;;;18.10;75.50;;;;;;5089952;28;20058;-91
2023/08/28 08:43:34;;;;;;;2.40;1.73;;;18.10;75.50;;;;;;5091648;28;20028;-93
2023/08/28 08:46:05;;;;;;;3.33;2.42;;;18.20;75.30;;;;;;5088022;28;20059;-92
2023/08/28 08:48:36;;;;;;;3.00;2.33;;;18.20;75.50;;;;;;5091326;28;20031;-93
2023/08/28 08:51:05;;;;;;;9.27;2.58;;;18.20;75.20;;;;;;5089976;28;20059;-92
2023/08/28 08:53:48;;;;;;;2.50;1.90;;;18.20;75.20;;;;;;5091989;28;20031;-93
2023/08/28 08:56:18;;;;;;;2.87;2.10;;;18.20;75.20;;;;;;5090693;28;20352;-92
2023/08/28 08:58:46;;;;;;;4.63;2.10;;;18.20;75.20;;;;;;5089049;28;20369;-93
2023/08/28 09:01:12;;;;;;;3.28;2.00;;;18.10;75.00;;;;;;5085447;28;20533;-93
2023/08/28 09:03:48;;;;;;;3.00;2.00;;;18.20;74.80;;;;;;5087437;28;20052;-92
2023/08/28 09:06:15;;;;;;;2.92;2.35;;;18.10;75.20;;;;;;5093324;28;20085;-92
2023/08/28 09:08:42;;;;;;;6.40;1.90;;;18.10;75.10;;;;;;5090845;28;20468;-92
2023/08/28 09:11:08;;;;;;;3.25;1.80;;;18.10;74.90;;;;;;5090592;28;20034;-93
2023/08/28 09:13:41;;;;;;;2.58;1.98;;;18.10;74.80;;;;;;5090672;28;20028;-92
2023/08/28 09:16:07;;;;;;;2.90;1.60;;;18.10;74.60;;;;;;5094222;28;20034;-92
2023/08/28 09:18:33;;;;;;;2.95;1.75;;;18.10;74.70;;;;;;5094561;28;20401;-92
2023/08/28 09:21:17;;;;;;;4.82;1.50;;;18.10;74.80;;;;;;5113586;28;20028;-93
2023/08/28 09:23:48;;;;;;;1.73;1.58;;;18.10;74.70;;;;;;5093822;28;20122;-90
2023/08/28 09:26:17;;;;;;;5.05;1.85;;;18.10;74.60;;;;;;5095136;28;20062;-93
2023/08/28 09:28:57;;;;;;;2.72;1.70;;;18.00;74.60;;;;;;5095505;28;20023;-93
2023/08/28 09:31:34;;;;;;;2.50;1.67;;;17.90;74.30;;;;;;5092137;28;20028;-92
2023/08/28 09:34:02;;;;;;;2.15;1.73;;;18.00;74.50;;;;;;5099876;28;20027;-93
2023/08/28 09:36:28;;;;;;;2.22;1.75;;;18.10;75.00;;;;;;5099869;28;20019;-92
2023/08/28 09:39:05;;;;;;;2.67;1.95;;;18.10;75.10;;;;;;5096120;28;20043;-94
2023/08/28 09:41:46;;;;;;;3.90;2.00;;;18.20;75.40;;;;;;5097337;28;20110;-91
2023/08/28 09:44:14;;;;;;;5.30;1.95;;;18.20;75.40;;;;;;5095236;28;20032;-91
2023/08/28 09:46:46;;;;;;;2.25;1.88;;;18.30;75.40;;;;;;5092334;28;20027;-92
2023/08/28 09:49:13;;;;;;;3.22;2.03;;;18.40;75.60;;;;;;5091970;28;20080;-93
2023/08/28 09:51:43;;;;;;;2.80;2.03;;;18.50;75.30;;;;;;5088111;28;20481;-92
2023/08/28 09:54:10;;;;;;;3.00;2.20;;;18.60;75.60;;;;;;5086219;28;20028;-92
2023/08/28 09:56:37;;;;;;;2.20;1.92;;;18.70;75.90;;;;;;5096262;28;20032;-92
2023/08/28 09:59:04;;;;;;;2.55;1.80;;;18.80;75.70;;;;;;5088289;28;20036;-92
2023/08/28 10:01:34;;;;;;;2.20;1.83;;;19.00;74.70;;;;;;5084834;28;20118;-93
2023/08/28 10:04:05;;;;;;;2.80;2.00;;;19.10;75.70;;;;;;5091317;28;20050;-92
2023/08/28 10:06:34;;;;;;;2.92;2.00;;;19.20;74.10;;;;;;5086464;28;20028;-91
2023/08/28 10:09:01;;;;;;;2.08;1.85;;;19.30;73.70;;;;;;5091739;28;20032;-92
2023/08/28 10:11:33;;;;;;;1.50;1.40;;;19.40;73.70;;;;;;5085626;28;20081;-92
2023/08/28 10:14:01;;;;;;;2.08;1.50;;;19.40;73.60;;;;;;5093759;28;20377;-92
2023/08/28 10:16:30;;;;;;;1.77;1.40;;;19.50;73.60;;;;;;5087441;28;20026;-93
2023/08/28 10:19:40;;;;;;;4.80;2.00;;;19.60;73.50;;;;;;5095214;28;20046;-94
2023/08/28 10:22:08;;;;;;;2.78;1.50;;;19.80;72.20;;;;;;5056801;28;20040;-91
2023/08/28 10:24:40;;;;;;;3.35;1.92;;;19.80;72.10;;;;;;5091863;28;20314;-94
2023/08/28 10:27:07;;;;;;;8.63;1.60;;;19.90;71.60;;;;;;5088022;28;20024;-91
2023/08/28 10:29:34;;;;;;;2.25;1.55;;;20.00;71.40;;;;;;5084802;28;20040;-92
2023/08/28 10:32:01;;;;;;;1.85;1.40;;;20.00;70.80;;;;;;5091718;28;20494;-92
2023/08/28 10:34:28;;;;;;;3.38;1.23;;;20.00;70.80;;;;;;5092164;28;20027;-92
2023/08/28 10:36:55;;;;;;;1.77;1.40;;;20.00;70.40;;;;;;5085505;28;20032;-91
2023/08/28 10:39:20;;;;;;;1.73;1.25;;;20.10;69.90;;;;;;5088811;28;20498;-92
2023/08/28 10:41:48;;;;;;;6.10;1.70;;;20.00;69.50;;;;;;5083187;28;20106;-92
2023/08/28 10:44:14;;;;;;;2.55;1.13;;;20.00;69.50;;;;;;5083368;28;20051;-93
2023/08/28 10:46:40;;;;;;;1.92;1.35;;;20.00;69.40;;;;;;5085944;28;20080;-92
2023/08/28 10:49:07;;;;;;;2.08;1.35;;;19.90;69.10;;;;;;5081999;28;20031;-91
2023/08/28 10:51:39;;;;;;;1.33;1.23;;;19.90;69.10;;;;;;5082009;28;20023;-95
2023/08/28 10:54:06;;;;;;;1.92;1.42;;;19.90;69.10;;;;;;5089659;28;20433;-91
2023/08/28 10:56:33;;;;;;;1.40;1.30;;;19.90;69.00;;;;;;5086932;28;20024;-91
2023/08/28 10:59:18;;;;;;;2.83;1.15;;;19.80;69.40;;;;;;5083782;28;20048;-90
2023/08/28 11:01:56;;;;;;;;;;;19.80;68.30;;;;;;5084857;28;20114;-87
2023/08/28 11:04:23;;;;;;;5.47;2.05;;;19.90;69.10;;;;;;5090443;28;20290;-90
2023/08/28 11:06:49;;;;;;;2.30;1.17;;;19.80;69.10;;;;;;5099965;28;20032;-91
2023/08/28 11:09:27;;;;;;;1.85;1.40;;;19.80;68.70;;;;;;5080325;28;20047;-91
2023/08/28 11:12:01;;;;;;;6.20;1.70;;;19.80;67.90;;;;;;5085921;28;20028;-89
2023/08/28 11:14:54;;;;;;;1.95;1.42;;;19.70;68.20;;;;;;5084288;28;20080;-92
2023/08/28 11:17:22;;;;;;;3.63;1.40;;;19.70;68.40;;;;;;5080180;28;20042;-91
2023/08/28 11:19:54;;;;;;;2.53;1.55;;;19.60;68.80;;;;;;5087002;28;20027;-90
2023/08/28 11:22:34;;;;;;;2.33;1.63;;;19.60;68.50;;;;;;5086765;28;20038;-91
2023/08/28 11:25:04;;;;;;;3.45;2.03;;;19.50;68.50;;;;;;5082302;28;20024;-92
2023/08/28 11:27:37;;;;;;;1.88;1.23;;;19.50;68.90;;;;;;5089028;28;20020;-92
2023/08/28 11:30:05;;;;;;;2.20;1.40;;;19.70;68.90;;;;;;5084737;28;20035;-92
2023/08/28 11:32:32;;;;;;;1.58;1.45;;;19.50;69.00;;;;;;5089170;28;20028;-93
2023/08/28 11:35:04;;;;;;;1.90;1.65;;;19.50;69.00;;;;;;5087437;28;20100;-91
2023/08/28 11:37:36;;;;;;;1.88;1.58;;;19.50;69.30;;;;;;5098987;28;20560;-92
2023/08/28 11:40:08;;;;;;;1.70;1.50;;;19.50;68.70;;;;;;5085464;28;20155;-92
2023/08/28 11:42:37;;;;;;;2.65;1.67;;;19.40;68.80;;;;;;5085292;28;20107;-91
2023/08/28 11:45:05;;;;;;;3.03;1.73;;;19.40;68.70;;;;;;5084083;28;20028;-92
2023/08/28 11:47:32;;;;;;;3.38;1.70;;;19.50;68.80;;;;;;5085829;28;20035;-91
2023/08/28 11:49:59;;;;;;;2.15;1.52;;;19.50;68.70;;;;;;5086858;28;20462;-91
2023/08/28 11:52:26;;;;;;;2.28;1.77;;;19.50;68.70;;;;;;5089043;28;20023;-92
2023/08/28 11:54:57;;;;;;;2.33;1.70;;;19.50;68.60;;;;;;5083262;28;20104;-92
2023/08/28 11:57:25;;;;;;;2.80;1.60;;;19.50;68.50;;;;;;5086214;28;20030;-89
2023/08/28 11:59:51;;;;;;;3.65;1.70;;;19.50;68.30;;;;;;5082099;28;20048;-92
2023/08/28 12:02:19;;;;;;;3.00;1.55;;;19.40;68.80;;;;;;5081723;28;20024;-92
2023/08/28 12:04:50;;;;;;;3.20;1.70;;;19.40;68.50;;;;;;5085867;28;20038;-92
2023/08/28 12:07:35;;;;;;;1.80;1.42;;;19.40;68.80;;;;;;5088569;28;20107;-91
2023/08/28 12:10:03;;;;;;;1.60;1.50;;;19.40;69.10;;;;;;5083831;28;20028;-91
2023/08/28 12:12:29;;;;;;;3.90;1.60;;;19.40;69.00;;;;;;5073533;28;20028;-91
2023/08/28 12:14:55;;;;;;;3.13;1.83;;;19.40;68.80;;;;;;5084005;28;20106;-91
2023/08/28 12:17:28;;;;;;;2.63;1.42;;;19.40;69.20;;;;;;5083096;28;20134;-91
2023/08/28 12:19:54;;;;;;;6.85;1.90;;;19.50;68.30;;;;;;5082346;28;20040;-92
2023/08/28 12:22:24;;;;;;;2.67;1.77;;;19.50;68.40;;;;;;5085394;28;20543;-92
2023/08/28 12:24:51;;;;;;;3.75;1.52;;;19.50;68.30;;;;;;5089524;28;20072;-92
2023/08/28 12:27:25;;;;;;;1.85;1.60;;;19.50;68.10;;;;;;5092496;28;20080;-91
2023/08/28 12:29:51;;;;;;;3.13;1.80;;;19.50;68.00;;;;;;5103475;28;20051;-94
2023/08/28 12:32:19;;;;;;;2.13;1.77;;;19.50;68.10;;;;;;5107153;28;20012;-94
2023/08/28 12:34:46;;;;;;;3.20;1.90;;;19.40;68.00;;;;;;5106636;28;20447;-90
2023/08/28 12:37:13;;;;;;;2.10;1.63;;;19.40;68.30;;;;;;5098207;28;20048;-91
2023/08/28 12:39:47;;;;;;;2.70;1.85;;;19.50;68.10;;;;;;5083795;28;20541;-91
2023/08/28 12:42:14;;;;;;;2.42;1.42;;;19.50;67.40;;;;;;5081288;28;20030;-92
2023/08/28 12:44:44;;;;;;;4.50;2.05;;;19.50;67.80;;;;;;5075392;28;20038;-92
2023/08/28 12:47:11;;;;;;;2.95;2.00;;;19.40;67.90;;;;;;5086975;28;20031;-92
2023/08/28 12:49:40;;;;;;;4.93;1.90;;;19.40;67.70;;;;;;5086726;28;20023;-90
2023/08/28 12:52:07;;;;;;;2.50;1.65;;;19.40;67.80;;;;;;5084563;28;20049;-93